Time;durP1;ratioP1;P1;durP2;ratioP2;P2;SDS_P1;SDS_P2;PMS_P1;PMS_P2;Temp;Humidity;BMP_temperature;BMP_pressure;BME280_temperature;BME280_humidity;BME280_pressure;Samples;Min_cycle;Max_cycle;Signal;HPM_P1;HPM_P2
2022/02/28 00:00:20;;;;;;;3.78;1.80;;;;;;;;;;5095571;28;20028;-67
2022/02/28 00:02:47;;;;;;;4.78;2.05;;;;;;;;;;5095556;28;20039;-68
2022/02/28 00:05:13;;;;;;;5.38;1.98;;;;;;;;;;5097094;28;20499;-67
2022/02/28 00:07:39;;;;;;;4.82;2.22;;;;;;;;;;5098237;28;20028;-68
2022/02/28 00:10:06;;;;;;;5.60;2.50;;;;;;;;;;5097740;28;20039;-68
2022/02/28 00:12:32;;;;;;;4.40;2.20;;;;;;;;;;5102002;28;20035;-68
2022/02/28 00:14:58;;;;;;;4.65;2.25;;;;;;;;;;5075585;28;20119;-68
2022/02/28 00:17:24;;;;;;;3.30;1.70;;;;;;;;;;5079226;28;20024;-67
2022/02/28 00:19:50;;;;;;;5.07;2.10;;;;;;;;;;5079735;28;20071;-67
2022/02/28 00:22:16;;;;;;;3.30;1.70;;;;;;;;;;5097686;28;20063;-67
2022/02/28 00:24:42;;;;;;;4.80;2.08;;;;;;;;;;5097855;28;20024;-68
2022/02/28 00:27:08;;;;;;;5.05;2.13;;;;;;;;;;5076486;28;20540;-67
2022/02/28 00:29:34;;;;;;;3.33;2.00;;;;;;;;;;5077836;28;20546;-67
2022/02/28 00:32:00;;;;;;;2.95;1.70;;;;;;;;;;5078269;28;20032;-66
2022/02/28 00:34:26;;;;;;;3.88;1.67;;;;;;;;;;5097088;28;20035;-67
2022/02/28 00:36:52;;;;;;;2.47;1.50;;;;;;;;;;5097622;28;20023;-67
2022/02/28 00:39:18;;;;;;;2.85;1.73;;;;;;;;;;5106226;28;20035;-67
2022/02/28 00:41:44;;;;;;;3.58;1.50;;;;;;;;;;5076527;28;20481;-67
2022/02/28 00:44:10;;;;;;;3.08;1.60;;;;;;;;;;5097235;28;20042;-67
2022/02/28 00:46:36;;;;;;;3.38;1.63;;;;;;;;;;5096937;28;20023;-67
2022/02/28 00:49:02;;;;;;;4.68;1.65;;;;;;;;;;5097467;28;20475;-67
2022/02/28 00:51:28;;;;;;;3.10;1.50;;;;;;;;;;5078922;28;20019;-68
2022/02/28 00:54:13;;;;;;;3.00;1.48;;;;;;;;;;5093437;28;20047;-67
2022/02/28 00:56:39;;;;;;;2.92;1.40;;;;;;;;;;5107461;28;20032;-67
2022/02/28 00:59:05;;;;;;;4.97;2.10;;;;;;;;;;5097626;28;20046;-67
2022/02/28 01:01:31;;;;;;;5.03;1.70;;;;;;;;;;5097054;28;20465;-67
2022/02/28 01:03:57;;;;;;;4.00;1.70;;;;;;;;;;5096697;28;20379;-67
2022/02/28 01:06:23;;;;;;;4.50;1.90;;;;;;;;;;5077790;28;20522;-67
2022/02/28 01:08:49;;;;;;;2.72;1.70;;;;;;;;;;5093517;28;20032;-67
2022/02/28 01:11:15;;;;;;;2.83;1.30;;;;;;;;;;5078300;28;20035;-67
2022/02/28 01:13:41;;;;;;;2.78;1.30;;;;;;;;;;5079240;28;20127;-67
2022/02/28 01:16:07;;;;;;;2.55;1.40;;;;;;;;;;5078311;28;20046;-67
2022/02/28 01:18:33;;;;;;;3.97;1.25;;;;;;;;;;5075701;28;20042;-67
2022/02/28 01:20:59;;;;;;;4.10;1.60;;;;;;;;;;5091017;28;20027;-66
2022/02/28 01:23:25;;;;;;;3.33;1.73;;;;;;;;;;5096501;28;20085;-66
2022/02/28 01:25:51;;;;;;;3.30;1.88;;;;;;;;;;5096689;28;20120;-66
2022/02/28 01:28:17;;;;;;;5.70;2.22;;;;;;;;;;5096236;28;20032;-66
2022/02/28 01:30:43;;;;;;;5.90;2.33;;;;;;;;;;5078371;28;20054;-67
2022/02/28 01:33:09;;;;;;;5.32;1.70;;;;;;;;;;5092976;28;20114;-67
2022/02/28 01:35:35;;;;;;;3.97;1.85;;;;;;;;;;5094264;28;20512;-66
2022/02/28 01:38:01;;;;;;;4.43;1.50;;;;;;;;;;5102695;28;20093;-67
2022/02/28 01:40:28;;;;;;;4.22;2.13;;;;;;;;;;5100719;28;20028;-66
2022/02/28 01:42:54;;;;;;;2.67;1.42;;;;;;;;;;5096427;28;20098;-67
2022/02/28 01:45:22;;;;;;;2.80;1.20;;;;;;;;;;5076268;28;20143;-67
2022/02/28 01:47:49;;;;;;;3.40;1.67;;;;;;;;;;5092580;28;20020;-67
2022/02/28 01:50:15;;;;;;;2.78;1.10;;;;;;;;;;5077938;28;20540;-67
2022/02/28 01:52:42;;;;;;;3.20;1.35;;;;;;;;;;5096387;28;20063;-66
2022/02/28 01:55:08;;;;;;;2.35;1.40;;;;;;;;;;5096363;28;20027;-67
2022/02/28 01:57:34;;;;;;;4.75;1.48;;;;;;;;;;5093276;28;20481;-66
2022/02/28 02:00:00;;;;;;;3.95;1.52;;;;;;;;;;5091248;28;20070;-66
2022/02/28 02:02:26;;;;;;;1.25;0.85;;;;;;;;;;5095601;28;20459;-67
2022/02/28 02:04:52;;;;;;;1.55;0.90;;;;;;;;;;5078555;28;20111;-67
2022/02/28 02:07:18;;;;;;;4.10;1.23;;;;;;;;;;5096251;28;20429;-66
2022/02/28 02:09:44;;;;;;;2.47;1.30;;;;;;;;;;5096039;28;20032;-67
2022/02/28 02:12:11;;;;;;;2.10;1.00;;;;;;;;;;5075052;28;20028;-66
2022/02/28 02:14:37;;;;;;;2.75;1.08;;;;;;;;;;5093178;28;20480;-67
2022/02/28 02:17:03;;;;;;;1.73;1.00;;;;;;;;;;5096379;28;20024;-68
2022/02/28 02:19:30;;;;;;;1.83;1.02;;;;;;;;;;5095880;28;20028;-67
2022/02/28 02:21:56;;;;;;;2.47;1.20;;;;;;;;;;5095416;28;20450;-67
2022/02/28 02:24:21;;;;;;;1.70;0.80;;;;;;;;;;5094157;28;20020;-66
2022/02/28 02:26:47;;;;;;;2.28;1.08;;;;;;;;;;5093263;28;20086;-66
2022/02/28 02:29:13;;;;;;;1.70;1.20;;;;;;;;;;5094797;28;20060;-67
2022/02/28 02:31:39;;;;;;;2.25;1.05;;;;;;;;;;5095703;28;20068;-67
2022/02/28 02:34:05;;;;;;;1.75;1.17;;;;;;;;;;5095782;28;20040;-67
2022/02/28 02:36:31;;;;;;;2.40;1.00;;;;;;;;;;5095259;28;20457;-66
2022/02/28 02:38:58;;;;;;;2.30;1.00;;;;;;;;;;5083815;28;20150;-67
2022/02/28 02:41:23;;;;;;;2.80;0.88;;;;;;;;;;5076638;28;20059;-66
2022/02/28 02:43:49;;;;;;;2.80;1.20;;;;;;;;;;5095531;28;20093;-66
2022/02/28 02:46:16;;;;;;;1.73;1.13;;;;;;;;;;5095688;28;20028;-66
2022/02/28 02:48:42;;;;;;;1.40;0.90;;;;;;;;;;5095427;28;20488;-66
2022/02/28 02:51:08;;;;;;;2.50;1.25;;;;;;;;;;5074223;28;20034;-66
2022/02/28 02:53:35;;;;;;;2.63;1.00;;;;;;;;;;5093873;28;20119;-67
2022/02/28 02:56:01;;;;;;;1.48;0.90;;;;;;;;;;5079172;28;20028;-66
2022/02/28 02:58:27;;;;;;;3.28;1.40;;;;;;;;;;5099019;28;20488;-66
2022/02/28 03:00:54;;;;;;;3.05;1.20;;;;;;;;;;5099433;28;20036;-66
2022/02/28 03:03:22;;;;;;;2.83;1.30;;;;;;;;;;5079933;28;20043;-67
2022/02/28 03:05:48;;;;;;;2.85;1.50;;;;;;;;;;5096013;28;20054;-66
2022/02/28 03:08:14;;;;;;;1.73;0.98;;;;;;;;;;5098643;28;20027;-66
2022/02/28 03:10:40;;;;;;;2.72;1.17;;;;;;;;;;5081297;28;20028;-66
2022/02/28 03:13:06;;;;;;;2.33;1.00;;;;;;;;;;5099054;28;20472;-67
2022/02/28 03:15:32;;;;;;;2.30;1.20;;;;;;;;;;5098452;28;20038;-67
2022/02/28 03:17:58;;;;;;;1.45;1.00;;;;;;;;;;5095168;28;20028;-67
2022/02/28 03:20:24;;;;;;;1.17;0.90;;;;;;;;;;5097880;28;20067;-67
2022/02/28 03:22:50;;;;;;;1.95;1.10;;;;;;;;;;5099116;28;20101;-67
2022/02/28 03:25:16;;;;;;;3.28;1.10;;;;;;;;;;5098825;28;20024;-67
2022/02/28 03:27:42;;;;;;;2.53;1.10;;;;;;;;;;5097254;28;20027;-67
2022/02/28 03:30:09;;;;;;;3.63;1.10;;;;;;;;;;5093747;28;20162;-67
2022/02/28 03:32:35;;;;;;;2.72;1.17;;;;;;;;;;5077698;28;20032;-67
2022/02/28 03:35:01;;;;;;;2.72;1.20;;;;;;;;;;5097041;28;20060;-67
2022/02/28 03:37:27;;;;;;;1.50;0.98;;;;;;;;;;5099453;28;20453;-67
2022/02/28 03:39:55;;;;;;;1.73;1.08;;;;;;;;;;5106276;28;20098;-68
2022/02/28 03:42:21;;;;;;;1.75;1.10;;;;;;;;;;5094438;28;20024;-67
2022/02/28 03:44:47;;;;;;;2.20;0.90;;;;;;;;;;5094074;28;20027;-67
2022/02/28 03:47:13;;;;;;;1.42;0.88;;;;;;;;;;5096063;28;20416;-67
2022/02/28 03:49:39;;;;;;;1.85;0.90;;;;;;;;;;5096372;28;20551;-67
2022/02/28 03:52:06;;;;;;;1.83;0.73;;;;;;;;;;5096885;28;20439;-68
2022/02/28 03:54:32;;;;;;;3.05;1.25;;;;;;;;;;5096100;28;20122;-67
2022/02/28 03:56:58;;;;;;;2.65;1.20;;;;;;;;;;5092936;28;20103;-67
2022/02/28 03:59:24;;;;;;;2.08;1.20;;;;;;;;;;5097908;28;20020;-67
2022/02/28 04:01:50;;;;;;;2.78;1.05;;;;;;;;;;5098096;28;20020;-67
2022/02/28 04:04:17;;;;;;;2.03;1.30;;;;;;;;;;5080477;28;20472;-67
2022/02/28 04:06:45;;;;;;;1.70;1.00;;;;;;;;;;5080575;28;20061;-66
2022/02/28 04:09:12;;;;;;;2.97;1.20;;;;;;;;;;5094461;28;20101;-67
2022/02/28 04:11:38;;;;;;;2.97;1.15;;;;;;;;;;5095628;28;20020;-66
2022/02/28 04:14:04;;;;;;;1.85;0.90;;;;;;;;;;5090324;28;20051;-66
2022/02/28 04:16:30;;;;;;;1.27;1.00;;;;;;;;;;5101877;28;20026;-66
2022/02/28 04:18:56;;;;;;;2.10;0.90;;;;;;;;;;5080019;28;20039;-66
2022/02/28 04:21:23;;;;;;;2.92;1.35;;;;;;;;;;5078159;28;20028;-66
2022/02/28 04:23:51;;;;;;;2.00;1.08;;;;;;;;;;5111435;28;20080;-67
2022/02/28 04:26:18;;;;;;;2.50;1.20;;;;;;;;;;5097018;28;20019;-68
2022/02/28 04:28:44;;;;;;;2.05;1.00;;;;;;;;;;5080216;28;20059;-68
2022/02/28 04:31:10;;;;;;;1.65;1.00;;;;;;;;;;5097597;28;20089;-69
2022/02/28 04:33:36;;;;;;;3.70;1.45;;;;;;;;;;5104276;28;20035;-68
2022/02/28 04:36:03;;;;;;;1.48;0.90;;;;;;;;;;5110765;28;20023;-68
2022/02/28 04:38:29;;;;;;;2.70;1.00;;;;;;;;;;5092349;28;20020;-67
2022/02/28 04:40:55;;;;;;;1.67;1.08;;;;;;;;;;5092729;28;20035;-69
2022/02/28 04:43:21;;;;;;;2.10;1.20;;;;;;;;;;5111488;28;20031;-68
2022/02/28 04:45:47;;;;;;;2.10;1.00;;;;;;;;;;5048395;28;20171;-68
2022/02/28 04:48:13;;;;;;;2.28;1.13;;;;;;;;;;5054556;28;20049;-68
2022/02/28 04:50:39;;;;;;;4.03;0.80;;;;;;;;;;5032584;28;20142;-68
2022/02/28 04:53:05;;;;;;;1.50;1.13;;;;;;;;;;5028288;28;20033;-71
2022/02/28 04:55:31;;;;;;;2.55;1.10;;;;;;;;;;5044261;28;20063;-68
2022/02/28 04:57:57;;;;;;;1.50;0.90;;;;;;;;;;5032495;28;20058;-69
2022/02/28 05:00:23;;;;;;;2.85;1.40;;;;;;;;;;5045525;28;20219;-69
2022/02/28 05:02:49;;;;;;;1.67;0.90;;;;;;;;;;5030372;28;20032;-69
2022/02/28 05:05:15;;;;;;;2.13;1.05;;;;;;;;;;5035730;28;20181;-68
2022/02/28 05:07:41;;;;;;;1.10;0.75;;;;;;;;;;5043250;28;20033;-68
2022/02/28 05:10:07;;;;;;;2.30;1.00;;;;;;;;;;5037428;28;20075;-68
2022/02/28 05:12:34;;;;;;;2.45;0.95;;;;;;;;;;5032525;28;20030;-68
2022/02/28 05:15:00;;;;;;;2.58;1.15;;;;;;;;;;5048334;28;20565;-68
2022/02/28 05:17:26;;;;;;;3.40;1.20;;;;;;;;;;5082787;28;20393;-69
2022/02/28 05:19:52;;;;;;;1.88;1.15;;;;;;;;;;5095995;28;20024;-69
2022/02/28 05:22:18;;;;;;;3.30;1.33;;;;;;;;;;5096281;28;20093;-69
2022/02/28 05:24:44;;;;;;;2.67;1.25;;;;;;;;;;5096384;28;20063;-69
2022/02/28 05:27:10;;;;;;;1.70;1.00;;;;;;;;;;5093587;28;20055;-69
2022/02/28 05:29:39;;;;;;;2.72;1.20;;;;;;;;;;5094347;28;20056;-69
2022/02/28 05:32:06;;;;;;;3.40;1.50;;;;;;;;;;5106449;28;20136;-69
2022/02/28 05:34:32;;;;;;;3.20;1.08;;;;;;;;;;5081762;28;20040;-69
2022/02/28 05:36:58;;;;;;;2.45;1.30;;;;;;;;;;5078445;28;20039;-69
2022/02/28 05:39:24;;;;;;;1.80;0.98;;;;;;;;;;5105757;28;20024;-69
2022/02/28 05:41:50;;;;;;;2.55;1.17;;;;;;;;;;5092985;28;20048;-69
2022/02/28 05:44:17;;;;;;;3.13;1.10;;;;;;;;;;5077683;28;20127;-69
2022/02/28 05:46:43;;;;;;;2.63;1.00;;;;;;;;;;5096078;28;20392;-69
2022/02/28 05:49:09;;;;;;;1.13;1.00;;;;;;;;;;5096783;28;20039;-69
2022/02/28 05:51:35;;;;;;;1.52;0.80;;;;;;;;;;5096155;28;20191;-69
2022/02/28 05:54:02;;;;;;;2.97;1.00;;;;;;;;;;5092127;28;20031;-69
2022/02/28 05:56:29;;;;;;;1.63;1.00;;;;;;;;;;5077759;28;20146;-69
2022/02/28 05:58:56;;;;;;;1.55;1.00;;;;;;;;;;5096289;28;20032;-69
2022/02/28 06:01:22;;;;;;;2.85;1.10;;;;;;;;;;5096188;28;20020;-69
2022/02/28 06:03:48;;;;;;;2.50;1.35;;;;;;;;;;5078047;28;20043;-69
2022/02/28 06:06:14;;;;;;;1.95;1.10;;;;;;;;;;5075351;28;20016;-69
2022/02/28 06:08:40;;;;;;;2.92;1.30;;;;;;;;;;5075008;28;20100;-69
2022/02/28 06:11:06;;;;;;;2.13;1.00;;;;;;;;;;5096406;28;20024;-69
2022/02/28 06:13:32;;;;;;;1.98;1.23;;;;;;;;;;5103625;28;20023;-68
2022/02/28 06:15:59;;;;;;;0.90;0.65;;;;;;;;;;5104131;28;20032;-67
2022/02/28 06:18:25;;;;;;;3.05;1.17;;;;;;;;;;5077245;28;20016;-68
2022/02/28 06:20:51;;;;;;;1.77;0.75;;;;;;;;;;5092656;28;20059;-67
2022/02/28 06:23:17;;;;;;;1.23;0.90;;;;;;;;;;5076630;28;20081;-68
2022/02/28 06:25:44;;;;;;;1.42;0.93;;;;;;;;;;5095492;28;20021;-68
2022/02/28 06:28:10;;;;;;;1.67;0.90;;;;;;;;;;5095950;28;20070;-68
2022/02/28 06:30:36;;;;;;;3.80;0.98;;;;;;;;;;5076026;28;20035;-68
2022/02/28 06:33:02;;;;;;;1.98;1.00;;;;;;;;;;5111840;28;20031;-69
2022/02/28 06:35:28;;;;;;;2.63;1.10;;;;;;;;;;5091577;28;20031;-68
2022/02/28 06:37:54;;;;;;;1.50;1.00;;;;;;;;;;5095888;28;20028;-68
2022/02/28 06:40:21;;;;;;;3.60;1.23;;;;;;;;;;5095965;28;20535;-69
2022/02/28 06:42:47;;;;;;;2.15;1.08;;;;;;;;;;5113000;28;20050;-70
2022/02/28 06:45:13;;;;;;;2.17;1.08;;;;;;;;;;5113016;28;20481;-69
2022/02/28 06:47:39;;;;;;;1.77;0.90;;;;;;;;;;5113898;28;20059;-70
2022/02/28 06:50:05;;;;;;;4.10;1.38;;;;;;;;;;5114580;28;20437;-69
2022/02/28 06:52:31;;;;;;;2.03;1.20;;;;;;;;;;5112832;28;20023;-70
2022/02/28 06:54:57;;;;;;;2.40;1.17;;;;;;;;;;5112781;28;20040;-70
2022/02/28 06:57:24;;;;;;;4.57;2.45;;;;;;;;;;5113146;28;20034;-70
2022/02/28 06:59:50;;;;;;;5.70;2.40;;;;;;;;;;5112971;28;20016;-70
2022/02/28 07:02:17;;;;;;;3.20;2.10;;;;;;;;;;5097638;28;20031;-70
2022/02/28 07:04:43;;;;;;;3.03;1.65;;;;;;;;;;5095071;28;20034;-67
2022/02/28 07:07:11;;;;;;;2.55;1.60;;;;;;;;;;5112531;28;20015;-69
2022/02/28 07:09:37;;;;;;;2.65;1.42;;;;;;;;;;5110512;28;20028;-70
2022/02/28 07:12:03;;;;;;;1.13;0.90;;;;;;;;;;5094991;28;20357;-70
2022/02/28 07:14:29;;;;;;;2.30;1.23;;;;;;;;;;5110112;28;20400;-71
2022/02/28 07:16:55;;;;;;;1.80;1.00;;;;;;;;;;5081823;28;20064;-70
2022/02/28 07:19:21;;;;;;;2.45;1.30;;;;;;;;;;5098702;28;20476;-70
2022/02/28 07:21:47;;;;;;;2.38;1.20;;;;;;;;;;5099030;28;20047;-72
2022/02/28 07:24:13;;;;;;;1.92;0.98;;;;;;;;;;5101066;28;20038;-72
2022/02/28 07:26:39;;;;;;;3.45;1.45;;;;;;;;;;5113485;27;20027;-73
2022/02/28 07:29:06;;;;;;;2.05;1.13;;;;;;;;;;5112844;28;20496;-73
2022/02/28 07:31:32;;;;;;;3.00;1.13;;;;;;;;;;5095094;28;20027;-73
2022/02/28 07:33:58;;;;;;;2.88;1.60;;;;;;;;;;5111316;28;20396;-70
2022/02/28 07:36:24;;;;;;;3.25;1.92;;;;;;;;;;5111741;28;20027;-74
2022/02/28 07:38:50;;;;;;;5.55;2.65;;;;;;;;;;5113763;27;20032;-74
2022/02/28 07:41:16;;;;;;;8.18;3.53;;;;;;;;;;5113038;28;20034;-73
2022/02/28 07:43:42;;;;;;;5.05;2.78;;;;;;;;;;5111047;28;20070;-73
2022/02/28 07:46:08;;;;;;;3.33;1.90;;;;;;;;;;5111852;28;20056;-73
2022/02/28 07:48:34;;;;;;;7.32;3.63;;;;;;;;;;5111842;28;20024;-74
2022/02/28 07:51:00;;;;;;;14.63;5.95;;;;;;;;;;5111370;28;20039;-74
2022/02/28 07:53:26;;;;;;;7.05;3.20;;;;;;;;;;5106626;27;20404;-74
2022/02/28 07:55:52;;;;;;;4.38;2.28;;;;;;;;;;5092008;28;20019;-74
2022/02/28 07:58:18;;;;;;;14.32;6.53;;;;;;;;;;5111228;28;20031;-74
2022/02/28 08:00:44;;;;;;;11.43;6.13;;;;;;;;;;5094222;28;20053;-74
2022/02/28 08:03:10;;;;;;;12.43;7.03;;;;;;;;;;5093158;28;20162;-74
2022/02/28 08:05:36;;;;;;;10.82;5.45;;;;;;;;;;5090706;28;20028;-74
2022/02/28 08:08:02;;;;;;;10.32;5.10;;;;;;;;;;5110975;28;20522;-74
2022/02/28 08:10:28;;;;;;;7.95;3.70;;;;;;;;;;5102311;28;20027;-74
2022/02/28 08:12:56;;;;;;;7.97;2.78;;;;;;;;;;5098124;28;20027;-74
2022/02/28 08:15:22;;;;;;;8.63;4.60;;;;;;;;;;5094217;28;20031;-73
2022/02/28 08:17:48;;;;;;;8.30;4.75;;;;;;;;;;5070029;28;20040;-70
2022/02/28 08:20:14;;;;;;;7.25;3.78;;;;;;;;;;5092791;28;20089;-74
2022/02/28 08:22:40;;;;;;;4.60;2.42;;;;;;;;;;5099068;28;20137;-73
2022/02/28 08:25:06;;;;;;;6.13;2.60;;;;;;;;;;5081659;28;20302;-73
2022/02/28 08:27:32;;;;;;;4.65;2.50;;;;;;;;;;5074537;28;20023;-73
2022/02/28 08:29:59;;;;;;;2.53;1.40;;;;;;;;;;5088137;28;20499;-73
2022/02/28 08:32:26;;;;;;;4.20;1.90;;;;;;;;;;5073491;28;20476;-72
2022/02/28 08:34:52;;;;;;;4.63;2.00;;;;;;;;;;5093442;28;20043;-72
2022/02/28 08:37:18;;;;;;;3.25;1.90;;;;;;;;;;5075667;28;20392;-71
2022/02/28 08:39:44;;;;;;;3.47;1.88;;;;;;;;;;5087751;28;20023;-71
2022/02/28 08:42:10;;;;;;;3.47;1.90;;;;;;;;;;5089605;28;20084;-71
2022/02/28 08:44:36;;;;;;;3.40;1.92;;;;;;;;;;5073238;28;20032;-71
2022/02/28 08:47:02;;;;;;;3.40;1.83;;;;;;;;;;5093882;28;20051;-70
2022/02/28 08:49:28;;;;;;;2.97;1.50;;;;;;;;;;5092696;28;20019;-71
2022/02/28 08:51:54;;;;;;;2.05;1.30;;;;;;;;;;5096181;28;20105;-71
2022/02/28 08:54:21;;;;;;;2.55;1.50;;;;;;;;;;5089835;28;20039;-71
2022/02/28 08:56:47;;;;;;;3.15;1.40;;;;;;;;;;5072387;28;20118;-70
2022/02/28 08:59:13;;;;;;;4.82;1.58;;;;;;;;;;5092373;28;20043;-70
2022/02/28 09:01:39;;;;;;;3.75;1.42;;;;;;;;;;5092581;28;20089;-69
2022/02/28 09:04:05;;;;;;;4.68;1.30;;;;;;;;;;5096704;28;20446;-70
2022/02/28 09:06:31;;;;;;;2.83;1.38;;;;;;;;;;5094800;28;20015;-69
2022/02/28 09:08:58;;;;;;;2.28;1.20;;;;;;;;;;5109286;28;20024;-69
2022/02/28 09:11:24;;;;;;;3.38;1.45;;;;;;;;;;5095130;28;20043;-68
2022/02/28 09:13:50;;;;;;;2.47;1.35;;;;;;;;;;5096898;28;20447;-68
2022/02/28 09:16:17;;;;;;;2.15;1.05;;;;;;;;;;5078843;28;20027;-69
2022/02/28 09:18:43;;;;;;;2.22;1.08;;;;;;;;;;5096862;28;20075;-70
2022/02/28 09:21:09;;;;;;;2.17;1.20;;;;;;;;;;5074502;28;20028;-70
2022/02/28 09:23:35;;;;;;;2.83;1.35;;;;;;;;;;5093869;28;20027;-68
2022/02/28 09:26:01;;;;;;;2.13;1.20;;;;;;;;;;5077458;28;20381;-68
2022/02/28 09:28:27;;;;;;;1.40;1.00;;;;;;;;;;5095336;28;20044;-69
2022/02/28 09:30:54;;;;;;;2.75;1.40;;;;;;;;;;5094512;28;20023;-68
2022/02/28 09:33:20;;;;;;;1.98;1.10;;;;;;;;;;5092440;28;20024;-68
2022/02/28 09:35:47;;;;;;;1.42;0.98;;;;;;;;;;5092534;28;20036;-68
2022/02/28 09:38:13;;;;;;;2.75;1.05;;;;;;;;;;5103503;28;20012;-68
2022/02/28 09:40:42;;;;;;;3.28;1.30;;;;;;;;;;5099168;28;20042;-69
2022/02/28 09:43:08;;;;;;;;;;;;;;;;;;5099314;28;20023;-68
2022/02/28 09:45:34;;;;;;;1.25;0.80;;;;;;;;;;5104608;28;19931;-68
2022/02/28 09:48:00;;;;;;;1.17;0.80;;;;;;;;;;5108409;28;20053;-68
2022/02/28 09:50:26;;;;;;;2.22;0.90;;;;;;;;;;5095646;28;20043;-68
2022/02/28 09:52:52;;;;;;;2.47;1.00;;;;;;;;;;5094746;28;20042;-68
2022/02/28 09:55:18;;;;;;;4.93;1.02;;;;;;;;;;5095698;28;20028;-69
2022/02/28 09:57:49;;;;;;;1.40;0.80;;;;;;;;;;5096027;28;20034;-69
2022/02/28 10:00:17;;;;;;;1.67;0.80;;;;;;;;;;5093523;28;20099;-69
2022/02/28 10:02:43;;;;;;;2.42;1.05;;;;;;;;;;5093597;28;20039;-69
2022/02/28 10:05:09;;;;;;;2.25;0.90;;;;;;;;;;5094876;28;20047;-69
2022/02/28 10:07:47;;;;;;;1.35;1.00;;;;;;;;;;5095548;28;20059;-69
2022/02/28 10:10:13;;;;;;;1.65;0.73;;;;;;;;;;5094955;28;20051;-69
2022/02/28 10:12:40;;;;;;;1.40;0.98;;;;;;;;;;5095841;28;20534;-69
2022/02/28 10:15:11;;;;;;;1.15;0.80;;;;;;;;;;5074427;28;20088;-69
2022/02/28 10:17:41;;;;;;;1.63;1.00;;;;;;;;;;5094127;28;20012;-69
2022/02/28 10:20:18;;;;;;;1.25;0.85;;;;;;;;;;5105835;28;20054;-68
2022/02/28 10:22:44;;;;;;;1.08;0.80;;;;;;;;;;5080035;28;20036;-69
2022/02/28 10:25:24;;;;;;;1.50;0.82;;;;;;;;;;5074877;28;20027;-69
2022/02/28 10:28:09;;;;;;;0.93;0.80;;;;;;;;;;5077711;28;20110;-68
2022/02/28 10:30:35;;;;;;;1.80;1.00;;;;;;;;;;5095384;28;20167;-69
2022/02/28 10:33:08;;;;;;;2.10;1.00;;;;;;;;;;5091931;28;20062;-69
2022/02/28 10:35:59;;;;;;;1.50;0.82;;;;;;;;;;5088692;28;20023;-69
2022/02/28 10:38:26;;;;;;;2.10;1.08;;;;;;;;;;5104711;28;20038;-69
2022/02/28 10:40:53;;;;;;;1.25;0.90;;;;;;;;;;5081778;28;20036;-69
2022/02/28 10:43:22;;;;;;;1.75;0.98;;;;;;;;;;5077745;28;20068;-70
2022/02/28 10:45:49;;;;;;;1.30;0.60;;;;;;;;;;5095831;28;20460;-69
2022/02/28 10:48:14;;;;;;;1.67;0.95;;;;;;;;;;5075137;28;20028;-69
2022/02/28 10:50:41;;;;;;;1.33;0.90;;;;;;;;;;5093288;28;20104;-69
2022/02/28 10:53:18;;;;;;;1.15;0.90;;;;;;;;;;5095224;28;20020;-69
2022/02/28 10:55:45;;;;;;;1.52;1.00;;;;;;;;;;5095215;28;20606;-70
2022/02/28 10:58:13;;;;;;;1.42;0.90;;;;;;;;;;5077718;28;20074;-69
2022/02/28 11:00:58;;;;;;;1.30;0.90;;;;;;;;;;5095824;28;20052;-70
2022/02/28 11:03:25;;;;;;;2.05;1.15;;;;;;;;;;5076712;28;20043;-70
2022/02/28 11:05:52;;;;;;;1.45;0.85;;;;;;;;;;5097506;28;20076;-69
2022/02/28 11:08:19;;;;;;;2.25;1.00;;;;;;;;;;5094981;28;20024;-70
2022/02/28 11:10:45;;;;;;;1.40;0.80;;;;;;;;;;5095441;28;20025;-69
2022/02/28 11:13:11;;;;;;;1.38;0.82;;;;;;;;;;5077533;28;20080;-70
2022/02/28 11:15:37;;;;;;;1.05;0.85;;;;;;;;;;5095165;28;20092;-70
2022/02/28 11:18:03;;;;;;;2.58;1.20;;;;;;;;;;5093666;28;20030;-69
2022/02/28 11:20:30;;;;;;;1.73;0.90;;;;;;;;;;5091802;28;20027;-69
2022/02/28 11:22:56;;;;;;;2.60;0.93;;;;;;;;;;5081651;28;20032;-69
2022/02/28 11:25:22;;;;;;;1.95;0.80;;;;;;;;;;5098592;28;20032;-69
2022/02/28 11:27:49;;;;;;;2.97;1.15;;;;;;;;;;5080854;28;20038;-69
2022/02/28 11:30:21;;;;;;;1.42;0.93;;;;;;;;;;5110819;28;20024;-69
2022/02/28 11:32:52;;;;;;;1.50;1.10;;;;;;;;;;5096871;28;20142;-69
2022/02/28 11:35:37;;;;;;;2.53;1.20;;;;;;;;;;5098482;28;20071;-69
2022/02/28 11:38:05;;;;;;;1.38;0.90;;;;;;;;;;5104660;28;20425;-69
2022/02/28 11:40:35;;;;;;;1.58;0.90;;;;;;;;;;5102676;28;20519;-69
2022/02/28 11:43:13;;;;;;;2.75;1.00;;;;;;;;;;5077839;28;20028;-70
2022/02/28 11:45:59;;;;;;;1.77;1.08;;;;;;;;;;5098511;28;20568;-70
2022/02/28 11:48:25;;;;;;;2.03;1.15;;;;;;;;;;5086091;28;20128;-70
2022/02/28 11:50:56;;;;;;;1.92;1.20;;;;;;;;;;5095524;28;20477;-70
2022/02/28 11:53:35;;;;;;;2.45;1.00;;;;;;;;;;5079067;28;20035;-69
2022/02/28 11:56:01;;;;;;;2.45;1.10;;;;;;;;;;5107361;28;20369;-70
2022/02/28 11:58:27;;;;;;;4.28;1.20;;;;;;;;;;5106216;28;20023;-70
2022/02/28 12:01:08;;;;;;;1.55;1.10;;;;;;;;;;5107474;28;20034;-70
2022/02/28 12:03:36;;;;;;;1.95;1.10;;;;;;;;;;5097386;28;20483;-71
2022/02/28 12:06:03;;;;;;;2.30;1.20;;;;;;;;;;5075580;28;20058;-70
2022/02/28 12:08:39;;;;;;;1.27;0.90;;;;;;;;;;5108995;28;20051;-70
2022/02/28 12:11:18;;;;;;;1.27;1.00;;;;;;;;;;5076978;28;20067;-70
2022/02/28 12:13:44;;;;;;;1.75;1.13;;;;;;;;;;5097455;28;20039;-71
2022/02/28 12:17:31;;;;;;;2.70;1.30;;;;;;;;;;5097694;28;20028;-67
2022/02/28 12:19:12;;;;;;;2.17;1.08;;;;;;;;;;5100496;27;20042;-67
2022/02/28 12:21:38;;;;;;;1.10;0.88;;;;;;;;;;5120379;27;20418;-70
2022/02/28 12:24:04;;;;;;;1.80;1.20;;;;;;;;;;5092298;28;20040;-73
2022/02/28 12:26:30;;;;;;;1.38;1.00;;;;;;;;;;5097231;28;20063;-76
2022/02/28 12:28:56;;;;;;;2.03;1.30;;;;;;;;;;5097425;28;20130;-73
2022/02/28 12:31:33;;;;;;;2.33;1.10;;;;;;;;;;5097293;28;20031;-71
2022/02/28 12:34:00;;;;;;;1.58;1.08;;;;;;;;;;5096258;28;20028;-73
2022/02/28 12:36:30;;;;;;;3.63;1.13;;;;;;;;;;5096193;28;20107;-74
2022/02/28 12:38:59;;;;;;;3.60;1.38;;;;;;;;;;5085574;28;20059;-74
2022/02/28 12:41:31;;;;;;;1.38;1.08;;;;;;;;;;5096564;28;20473;-74
2022/02/28 12:43:59;;;;;;;1.98;1.20;;;;;;;;;;5096389;28;20036;-74
2022/02/28 12:46:27;;;;;;;2.15;1.40;;;;;;;;;;5097482;28;20043;-74
2022/02/28 12:48:53;;;;;;;2.08;1.30;;;;;;;;;;5079144;28;20028;-75
2022/02/28 12:51:22;;;;;;;2.28;1.10;;;;;;;;;;5094524;28;20069;-77
2022/02/28 12:53:47;;;;;;;;;;;;;;;;;;5094637;28;20042;-72
2022/02/28 12:56:15;;;;;;;2.17;1.13;;;;;;;;;;5095897;28;19904;-74
2022/02/28 12:58:42;;;;;;;1.70;1.00;;;;;;;;;;5096344;28;20031;-74
2022/02/28 13:01:08;;;;;;;2.40;1.10;;;;;;;;;;5098260;28;20456;-73
2022/02/28 13:03:35;;;;;;;1.85;1.20;;;;;;;;;;5089953;28;20035;-74
2022/02/28 13:06:01;;;;;;;2.03;1.20;;;;;;;;;;5091698;28;20034;-73
2022/02/28 13:08:27;;;;;;;1.63;1.00;;;;;;;;;;5077513;28;20119;-74
2022/02/28 13:11:08;;;;;;;2.00;1.05;;;;;;;;;;5078757;28;20024;-74
2022/02/28 13:13:35;;;;;;;2.00;1.30;;;;;;;;;;5079017;28;20289;-74
2022/02/28 13:16:01;;;;;;;1.65;1.10;;;;;;;;;;5095780;28;20059;-74
2022/02/28 13:18:28;;;;;;;1.77;1.10;;;;;;;;;;5095294;28;20107;-73
2022/02/28 13:20:55;;;;;;;2.63;1.40;;;;;;;;;;5092364;28;20070;-74
2022/02/28 13:23:21;;;;;;;2.15;1.35;;;;;;;;;;5096170;28;20023;-73
2022/02/28 13:25:51;;;;;;;2.35;1.33;;;;;;;;;;5096202;28;20035;-73
2022/02/28 13:28:18;;;;;;;1.40;1.00;;;;;;;;;;5096211;28;20129;-73
2022/02/28 13:30:44;;;;;;;2.15;1.00;;;;;;;;;;5095934;28;20066;-74
2022/02/28 13:33:10;;;;;;;3.17;1.30;;;;;;;;;;5092573;28;20095;-75
2022/02/28 13:35:40;;;;;;;2.28;1.10;;;;;;;;;;5094253;28;20217;-71
2022/02/28 13:38:06;;;;;;;;;;;;;;;;;;5106625;28;20103;-73
2022/02/28 13:40:33;;;;;;;2.75;1.10;;;;;;;;;;5103368;28;20002;-73
2022/02/28 13:43:00;;;;;;;1.75;1.23;;;;;;;;;;5104680;28;20027;-74
2022/02/28 13:45:28;;;;;;;2.45;1.30;;;;;;;;;;5093893;28;20019;-72
2022/02/28 13:47:58;;;;;;;2.90;1.13;;;;;;;;;;5092667;28;20143;-71
2022/02/28 13:50:30;;;;;;;1.65;1.17;;;;;;;;;;5094941;28;20522;-72
2022/02/28 13:53:03;;;;;;;3.72;1.30;;;;;;;;;;5095810;28;20062;-72
2022/02/28 13:55:32;;;;;;;3.35;1.30;;;;;;;;;;5078129;28;20457;-68
2022/02/28 13:57:59;;;;;;;1.70;1.23;;;;;;;;;;5095860;28;20019;-70
2022/02/28 14:00:28;;;;;;;1.77;1.20;;;;;;;;;;5094609;28;20023;-71
2022/02/28 14:03:03;;;;;;;1.42;1.30;;;;;;;;;;5092777;28;20028;-70
2022/02/28 14:05:42;;;;;;;1.67;1.30;;;;;;;;;;5093122;28;20032;-71
2022/02/28 14:08:12;;;;;;;3.63;1.40;;;;;;;;;;5105928;28;20516;-71
2022/02/28 14:10:39;;;;;;;0.98;0.88;;;;;;;;;;5109242;28;20071;-71
2022/02/28 14:13:17;;;;;;;5.68;1.33;;;;;;;;;;5109473;28;20099;-71
2022/02/28 14:15:44;;;;;;;1.98;1.30;;;;;;;;;;5090066;28;20032;-71
2022/02/28 14:18:10;;;;;;;1.73;1.10;;;;;;;;;;5109011;28;20039;-71
2022/02/28 14:20:40;;;;;;;2.50;1.27;;;;;;;;;;5110038;28;20024;-71
2022/02/28 14:23:13;;;;;;;1.73;1.10;;;;;;;;;;5110658;28;20019;-71
2022/02/28 14:25:41;;;;;;;2.47;1.13;;;;;;;;;;5108117;28;20024;-71
2022/02/28 14:28:23;;;;;;;1.95;1.50;;;;;;;;;;5108773;28;20494;-69
2022/02/28 14:31:03;;;;;;;7.95;1.52;;;;;;;;;;5106980;28;20039;-67
2022/02/28 14:33:29;;;;;;;4.38;1.40;;;;;;;;;;5106515;28;20430;-70
2022/02/28 14:35:56;;;;;;;2.17;1.33;;;;;;;;;;5108648;28;20115;-68
2022/02/28 14:38:22;;;;;;;1.75;1.20;;;;;;;;;;5113126;28;20012;-67
2022/02/28 14:40:48;;;;;;;1.95;1.38;;;;;;;;;;5108621;28;20027;-67
2022/02/28 14:43:15;;;;;;;2.53;1.30;;;;;;;;;;5108831;28;20126;-67